Terminal Aerodrome Forecast
Issued by NWS Tuscon, AZ

Home | Current Version | Previous Version | Text Only | Print | Product List | Glossary On
Versions: 1 2 3 4 5 6 7 8 9 10 11 12 13 14
000
FTUS45 KTWC 261136
TAFDUG
TAF
KDUG 261136Z 2612/2712 13006KT P6SM SCT070 BKN110
     FM261600 04006KT P6SM SCT080 BKN120
     FM262100 35008KT P6SM VCSH SCT060 BKN100
     FM270200 01009KT P6SM SCT070 BKN110=

USA.gov is the U.S. government's official web portal to all federal, state and local government web resources and services.